Time;durP1;ratioP1;P1;durP2;ratioP2;P2;SDS_P1;SDS_P2;PMS_P1;PMS_P2;Temp;Humidity;BMP_temperature;BMP_pressure;BME280_temperature;BME280_humidity;BME280_pressure;Samples;Min_cycle;Max_cycle;Signal;HPM_P1;HPM_P2
2023/03/27 00:00:55;;;;;;;10.13;6.80;;;5.30;99.90;;;;;;485562;245;28126;-74
2023/03/27 00:02:56;;;;;;;13.02;5.65;;;5.30;99.90;;;;;;485528;245;28031;-74
2023/03/27 00:04:57;;;;;;;15.88;5.78;;;5.20;99.90;;;;;;485454;245;27595;-73
2023/03/27 00:06:58;;;;;;;13.35;5.43;;;5.30;99.90;;;;;;485569;245;27547;-73
2023/03/27 00:09:01;;;;;;;10.38;5.53;;;5.20;99.90;;;;;;485528;245;27498;-74
2023/03/27 00:11:00;;;;;;;14.43;7.32;;;5.20;99.90;;;;;;485433;245;27509;-76
2023/03/27 00:13:05;;;;;;;12.63;7.20;;;5.20;99.90;;;;;;485531;245;27996;-74
2023/03/27 00:15:06;;;;;;;12.63;6.45;;;5.20;99.90;;;;;;485474;245;28011;-74
2023/03/27 00:17:08;;;;;;;11.85;6.53;;;5.20;99.90;;;;;;485518;245;28171;-74
2023/03/27 00:19:09;;;;;;;11.90;7.12;;;5.20;99.90;;;;;;485515;245;27514;-73
2023/03/27 00:21:10;;;;;;;26.73;7.75;;;5.10;99.90;;;;;;485523;245;27473;-74
2023/03/27 00:23:12;;;;;;;12.68;6.70;;;5.10;99.90;;;;;;485541;245;27516;-74
2023/03/27 00:25:12;;;;;;;18.75;7.20;;;5.10;99.90;;;;;;485484;245;27515;-72
2023/03/27 00:27:14;;;;;;;15.98;6.90;;;5.10;99.90;;;;;;485527;245;27578;-76
2023/03/27 00:29:15;;;;;;;12.88;5.95;;;5.10;99.90;;;;;;485555;245;28004;-73
2023/03/27 00:31:16;;;;;;;17.73;5.87;;;5.10;99.90;;;;;;485546;245;27627;-74
2023/03/27 00:33:17;;;;;;;13.02;6.37;;;5.10;99.90;;;;;;485530;245;27583;-73
2023/03/27 00:35:19;;;;;;;14.18;6.82;;;5.10;99.90;;;;;;485449;245;27504;-73
2023/03/27 00:37:20;;;;;;;17.42;6.22;;;5.10;99.90;;;;;;485538;245;27551;-74
2023/03/27 00:39:22;;;;;;;12.10;7.00;;;4.90;99.90;;;;;;485594;245;27487;-73
2023/03/27 00:41:22;;;;;;;11.85;6.82;;;5.00;99.90;;;;;;485493;245;27967;-73
2023/03/27 00:43:25;;;;;;;21.45;6.70;;;5.00;99.90;;;;;;485556;245;27590;-74
2023/03/27 00:45:25;;;;;;;17.20;6.30;;;5.00;99.90;;;;;;485436;245;27519;-73
2023/03/27 00:47:27;;;;;;;17.17;7.25;;;4.90;99.90;;;;;;485385;245;27826;-73
2023/03/27 00:49:28;;;;;;;12.90;6.10;;;5.00;99.90;;;;;;485339;245;27532;-74
2023/03/27 00:51:30;;;;;;;16.08;6.55;;;5.00;99.90;;;;;;485562;245;27533;-73
2023/03/27 00:53:30;;;;;;;12.18;5.95;;;5.00;99.90;;;;;;485543;245;28056;-74
2023/03/27 00:55:31;;;;;;;8.45;5.53;;;5.00;99.90;;;;;;485507;245;29197;-74
2023/03/27 00:57:32;;;;;;;19.45;7.40;;;5.00;99.90;;;;;;485540;245;27516;-74
2023/03/27 00:59:34;;;;;;;11.70;5.82;;;4.90;99.90;;;;;;485567;245;27512;-74
2023/03/27 01:01:35;;;;;;;13.70;6.15;;;5.00;99.90;;;;;;485545;245;27452;-73
2023/03/27 01:03:36;;;;;;;11.25;5.60;;;4.90;99.90;;;;;;485549;245;27610;-74
2023/03/27 01:05:37;;;;;;;10.88;5.20;;;4.90;99.90;;;;;;485469;245;27510;-74
2023/03/27 01:07:39;;;;;;;18.12;6.65;;;4.90;99.90;;;;;;485528;245;28000;-74
2023/03/27 01:09:40;;;;;;;17.75;6.05;;;4.90;99.90;;;;;;485552;245;28148;-73
2023/03/27 01:11:41;;;;;;;12.57;5.68;;;5.00;99.90;;;;;;485537;245;27447;-74
2023/03/27 01:13:43;;;;;;;12.13;5.45;;;4.90;99.90;;;;;;485525;245;27520;-74
2023/03/27 01:15:44;;;;;;;11.25;4.93;;;4.90;99.90;;;;;;485493;245;27612;-74
2023/03/27 01:17:45;;;;;;;9.55;4.75;;;4.80;99.90;;;;;;485548;245;27505;-73
2023/03/27 01:19:46;;;;;;;8.23;5.00;;;4.90;99.90;;;;;;485547;245;27579;-75
2023/03/27 01:21:48;;;;;;;9.73;4.78;;;4.80;99.90;;;;;;485554;245;28723;-74
2023/03/27 01:23:49;;;;;;;10.77;5.65;;;4.90;99.90;;;;;;485570;245;29213;-73
2023/03/27 01:25:50;;;;;;;14.85;5.57;;;4.80;99.90;;;;;;485511;245;27509;-73
2023/03/27 01:27:51;;;;;;;14.75;5.10;;;4.80;99.90;;;;;;485563;245;27543;-74
2023/03/27 01:29:53;;;;;;;12.65;5.30;;;4.80;99.90;;;;;;485479;245;27586;-74
2023/03/27 01:31:54;;;;;;;14.87;5.70;;;4.80;99.90;;;;;;485608;245;27502;-74
2023/03/27 01:33:55;;;;;;;8.07;5.18;;;4.70;99.90;;;;;;485533;245;27451;-73
2023/03/27 01:35:56;;;;;;;8.23;4.78;;;4.80;99.90;;;;;;485521;245;28074;-74
2023/03/27 01:37:58;;;;;;;13.75;4.97;;;4.70;99.90;;;;;;485541;245;28004;-74
2023/03/27 01:39:59;;;;;;;9.93;4.78;;;4.70;99.90;;;;;;485417;245;27500;-74
2023/03/27 01:42:00;;;;;;;13.80;4.78;;;4.70;99.90;;;;;;485499;245;27505;-73
2023/03/27 01:44:01;;;;;;;11.52;5.03;;;4.60;99.90;;;;;;485534;244;27484;-74
2023/03/27 01:46:03;;;;;;;11.35;4.57;;;4.70;99.90;;;;;;485522;244;27618;-74
2023/03/27 01:48:04;;;;;;;10.73;4.90;;;4.70;99.90;;;;;;485462;245;27459;-74
2023/03/27 01:50:05;;;;;;;7.20;4.55;;;4.60;99.90;;;;;;485558;245;27500;-74
2023/03/27 01:52:07;;;;;;;12.45;4.87;;;4.50;99.90;;;;;;485557;245;28197;-74
2023/03/27 01:54:08;;;;;;;14.07;5.35;;;4.50;99.90;;;;;;485478;245;27896;-74
2023/03/27 01:56:09;;;;;;;8.15;4.40;;;4.50;99.90;;;;;;485505;245;27590;-74
2023/03/27 01:58:12;;;;;;;9.98;4.62;;;4.50;99.90;;;;;;485555;245;27472;-73
2023/03/27 02:00:16;;;;;;;10.63;4.95;;;4.50;99.90;;;;;;485455;245;27523;-73
2023/03/27 02:02:16;;;;;;;9.07;4.45;;;4.50;99.90;;;;;;485426;241;27607;-74
2023/03/27 02:04:17;;;;;;;12.93;4.10;;;4.40;99.90;;;;;;485432;245;27518;-74
2023/03/27 02:06:18;;;;;;;18.27;5.32;;;4.40;99.90;;;;;;485519;245;27900;-73
2023/03/27 02:08:19;;;;;;;12.00;4.10;;;4.40;99.90;;;;;;485550;245;28087;-73
2023/03/27 02:10:21;;;;;;;11.27;4.95;;;4.40;99.90;;;;;;485534;242;27929;-73
2023/03/27 02:12:22;;;;;;;12.95;5.10;;;4.30;99.90;;;;;;485524;245;27556;-74
2023/03/27 02:14:23;;;;;;;10.40;4.32;;;4.30;99.90;;;;;;485484;245;27520;-73
2023/03/27 02:16:25;;;;;;;8.02;3.90;;;4.30;99.90;;;;;;485512;245;27471;-73
2023/03/27 02:18:25;;;;;;;13.30;4.00;;;4.20;99.90;;;;;;485489;245;27511;-73
2023/03/27 02:20:27;;;;;;;12.75;4.32;;;4.30;99.90;;;;;;485550;245;27472;-73
2023/03/27 02:22:28;;;;;;;12.20;4.45;;;4.20;99.90;;;;;;485544;245;27578;-73
2023/03/27 02:24:29;;;;;;;8.35;3.65;;;4.20;99.90;;;;;;485367;245;28047;-73
2023/03/27 02:26:30;;;;;;;9.40;4.05;;;4.00;99.90;;;;;;485332;245;28444;-73
2023/03/27 02:28:33;;;;;;;6.97;3.90;;;4.00;99.90;;;;;;485540;245;27527;-73
2023/03/27 02:30:33;;;;;;;9.57;3.90;;;3.90;99.90;;;;;;485448;245;27583;-73
2023/03/27 02:32:34;;;;;;;12.73;4.10;;;3.90;99.90;;;;;;485497;245;27574;-73
2023/03/27 02:34:37;;;;;;;9.82;3.40;;;3.90;99.90;;;;;;485470;245;27521;-74
2023/03/27 02:36:37;;;;;;;10.35;4.03;;;3.90;99.90;;;;;;485392;245;27468;-73
2023/03/27 02:38:38;;;;;;;10.57;3.83;;;3.90;99.90;;;;;;485424;245;27550;-73
2023/03/27 02:40:39;;;;;;;7.30;2.67;;;3.90;99.90;;;;;;485488;245;27469;-73
2023/03/27 02:42:40;;;;;;;10.57;3.65;;;3.90;99.90;;;;;;485462;245;27847;-73
2023/03/27 02:44:42;;;;;;;18.33;3.33;;;3.80;99.90;;;;;;485330;242;28075;-74
2023/03/27 02:46:43;;;;;;;8.55;3.53;;;3.80;99.90;;;;;;485463;245;27979;-73
2023/03/27 02:48:44;;;;;;;9.07;3.90;;;3.80;99.90;;;;;;485446;245;27506;-73
2023/03/27 02:50:45;;;;;;;14.25;3.72;;;3.70;99.90;;;;;;485482;245;27511;-74
2023/03/27 02:52:49;;;;;;;8.38;3.60;;;3.70;99.90;;;;;;485497;245;27572;-73
2023/03/27 02:54:48;;;;;;;8.75;3.55;;;3.60;99.90;;;;;;485338;245;27558;-74
2023/03/27 02:56:50;;;;;;;12.23;3.30;;;3.60;99.90;;;;;;485497;245;27484;-73
2023/03/27 02:58:50;;;;;;;9.57;3.08;;;3.60;99.90;;;;;;485451;245;27503;-73
2023/03/27 03:00:52;;;;;;;8.40;2.80;;;3.60;99.90;;;;;;485518;245;27557;-73
2023/03/27 03:02:53;;;;;;;7.85;2.70;;;3.50;99.90;;;;;;485550;245;27519;-73
2023/03/27 03:04:56;;;;;;;10.55;3.37;;;3.40;99.90;;;;;;485477;245;27944;-73
2023/03/27 03:06:55;;;;;;;10.75;3.10;;;3.30;99.90;;;;;;485457;245;27908;-73
2023/03/27 03:09:00;;;;;;;7.90;3.03;;;3.00;99.90;;;;;;485505;245;27986;-73
2023/03/27 03:10:58;;;;;;;8.27;2.72;;;2.90;99.90;;;;;;485214;245;27661;-73
2023/03/27 03:12:59;;;;;;;7.70;2.20;;;2.90;99.90;;;;;;485553;245;27460;-73
2023/03/27 03:15:00;;;;;;;14.23;2.72;;;2.80;99.90;;;;;;485500;245;27511;-74
2023/03/27 03:17:02;;;;;;;7.47;2.92;;;2.70;99.90;;;;;;485522;245;27452;-73
2023/03/27 03:19:03;;;;;;;7.45;2.50;;;2.60;99.90;;;;;;485447;245;27522;-73
2023/03/27 03:21:04;;;;;;;9.55;2.65;;;2.60;99.90;;;;;;485504;245;27497;-73
2023/03/27 03:23:05;;;;;;;9.45;2.37;;;2.50;99.90;;;;;;485527;245;27628;-72
2023/03/27 03:25:07;;;;;;;11.77;2.60;;;2.40;99.90;;;;;;485496;245;27503;-73
2023/03/27 03:27:08;;;;;;;6.60;2.47;;;2.40;99.90;;;;;;485545;245;27456;-74
2023/03/27 03:29:09;;;;;;;13.23;3.03;;;2.30;99.90;;;;;;485548;245;27952;-73
2023/03/27 03:31:10;;;;;;;11.57;2.22;;;2.20;99.90;;;;;;485532;245;28046;-73
2023/03/27 03:33:13;;;;;;;6.68;2.10;;;2.10;99.90;;;;;;485549;245;27927;-73
2023/03/27 03:35:13;;;;;;;7.00;3.03;;;2.10;99.90;;;;;;485437;245;27518;-73
2023/03/27 03:37:14;;;;;;;11.38;2.37;;;2.10;99.90;;;;;;485533;245;27449;-73
2023/03/27 03:39:15;;;;;;;6.28;2.30;;;2.10;99.90;;;;;;485503;242;27597;-73
2023/03/27 03:41:17;;;;;;;12.30;2.45;;;2.00;99.90;;;;;;485533;245;27499;-73
2023/03/27 03:43:18;;;;;;;11.48;2.55;;;2.00;99.90;;;;;;485534;245;27548;-73
2023/03/27 03:45:19;;;;;;;9.45;2.78;;;2.00;99.90;;;;;;485489;245;27505;-73
2023/03/27 03:47:21;;;;;;;8.48;2.58;;;1.90;99.90;;;;;;485534;245;27551;-73
2023/03/27 03:49:22;;;;;;;4.28;2.10;;;1.90;99.90;;;;;;485513;245;27587;-73
2023/03/27 03:51:23;;;;;;;7.72;2.62;;;1.90;99.90;;;;;;485543;245;27582;-73
2023/03/27 03:53:24;;;;;;;8.68;2.70;;;1.90;99.90;;;;;;485481;245;27970;-72
2023/03/27 03:55:26;;;;;;;10.13;2.65;;;1.90;99.90;;;;;;485467;245;27918;-73
2023/03/27 03:57:27;;;;;;;8.50;2.67;;;1.80;99.90;;;;;;485516;245;27948;-73
2023/03/27 03:59:28;;;;;;;7.62;2.45;;;1.80;99.90;;;;;;485492;245;29051;-73
2023/03/27 04:01:29;;;;;;;10.60;2.53;;;1.80;99.90;;;;;;485520;245;27499;-73
2023/03/27 04:03:31;;;;;;;7.55;2.65;;;1.80;99.90;;;;;;485500;245;27483;-73
2023/03/27 04:05:32;;;;;;;5.22;2.15;;;1.80;99.90;;;;;;485487;241;27558;-73
2023/03/27 04:07:34;;;;;;;5.82;3.25;;;1.70;99.90;;;;;;485504;245;27499;-73
2023/03/27 04:09:34;;;;;;;7.25;2.72;;;1.70;99.90;;;;;;485500;245;27610;-72
2023/03/27 04:11:36;;;;;;;12.32;2.90;;;1.70;99.90;;;;;;485531;245;27463;-73
2023/03/27 04:13:37;;;;;;;6.85;2.33;;;1.60;99.90;;;;;;485524;241;27531;-73
2023/03/27 04:15:38;;;;;;;11.40;2.92;;;1.60;99.90;;;;;;485450;245;27502;-73
2023/03/27 04:17:41;;;;;;;11.05;2.45;;;1.60;99.90;;;;;;485535;245;27897;-73
2023/03/27 04:19:41;;;;;;;11.75;2.78;;;1.70;99.90;;;;;;485456;245;27998;-73
2023/03/27 04:21:42;;;;;;;6.75;2.33;;;1.70;99.90;;;;;;485530;245;27552;-73
2023/03/27 04:23:44;;;;;;;8.43;2.25;;;1.60;99.90;;;;;;485506;245;27512;-73
2023/03/27 04:25:47;;;;;;;5.40;2.20;;;1.60;99.90;;;;;;485472;245;27514;-73
2023/03/27 04:27:51;;;;;;;6.93;2.42;;;1.50;99.90;;;;;;485537;245;27515;-73
2023/03/27 04:29:53;;;;;;;12.35;2.87;;;1.50;99.90;;;;;;485380;245;27590;-73
2023/03/27 04:31:54;;;;;;;11.12;2.70;;;1.50;99.90;;;;;;484656;245;27876;-73
2023/03/27 04:33:55;;;;;;;5.37;2.25;;;1.60;99.90;;;;;;484770;245;27514;-73
2023/03/27 04:35:59;;;;;;;6.50;3.00;;;1.50;99.90;;;;;;484989;245;27554;-73
2023/03/27 04:38:01;;;;;;;7.95;3.05;;;1.40;99.90;;;;;;485259;241;27916;-73
2023/03/27 04:39:59;;;;;;;4.03;2.10;;;1.40;99.90;;;;;;485404;245;27944;-73
2023/03/27 04:42:01;;;;;;;11.52;2.65;;;1.40;99.90;;;;;;485484;245;27921;-72
2023/03/27 04:44:01;;;;;;;10.27;2.30;;;1.30;99.90;;;;;;485516;245;27596;-73
2023/03/27 04:46:02;;;;;;;13.70;3.42;;;1.30;99.90;;;;;;485485;241;27513;-73
2023/03/27 04:48:04;;;;;;;13.57;2.83;;;1.20;99.90;;;;;;485532;245;27477;-73
2023/03/27 04:50:05;;;;;;;6.68;2.55;;;1.20;99.90;;;;;;485533;244;27622;-73
2023/03/27 04:52:06;;;;;;;8.02;2.55;;;1.20;99.90;;;;;;485515;245;27472;-73
2023/03/27 04:54:07;;;;;;;5.30;2.22;;;1.20;99.90;;;;;;485513;245;27526;-73
2023/03/27 04:56:09;;;;;;;15.90;3.20;;;1.20;99.90;;;;;;485463;245;27498;-73
2023/03/27 04:58:11;;;;;;;10.88;2.97;;;1.10;99.90;;;;;;485514;245;27584;-73
2023/03/27 05:00:18;;;;;;;11.77;2.97;;;1.20;99.90;;;;;;485486;245;27983;-73
2023/03/27 05:02:18;;;;;;;7.50;2.70;;;1.10;99.90;;;;;;485498;245;27468;-73
2023/03/27 05:04:19;;;;;;;8.88;2.95;;;1.10;99.90;;;;;;485497;245;27514;-73
2023/03/27 05:06:21;;;;;;;10.15;2.97;;;1.10;99.90;;;;;;485493;245;27499;-72
2023/03/27 05:08:22;;;;;;;13.02;3.35;;;1.10;99.90;;;;;;485519;245;27495;-73
2023/03/27 05:10:23;;;;;;;14.63;3.90;;;1.10;99.90;;;;;;485526;241;27583;-73
2023/03/27 05:12:24;;;;;;;12.52;3.95;;;1.10;99.90;;;;;;485514;245;27909;-73
2023/03/27 05:14:26;;;;;;;13.02;3.65;;;1.10;99.90;;;;;;485460;245;27962;-73
2023/03/27 05:16:27;;;;;;;11.43;3.30;;;1.10;99.90;;;;;;485520;245;27465;-73
2023/03/27 05:18:29;;;;;;;6.28;2.70;;;1.10;99.90;;;;;;485506;245;27587;-73
2023/03/27 05:20:29;;;;;;;9.70;3.00;;;1.00;99.90;;;;;;485431;245;27503;-73
2023/03/27 05:22:31;;;;;;;9.40;2.80;;;1.00;99.90;;;;;;485498;245;27557;-73
2023/03/27 05:24:32;;;;;;;7.75;3.00;;;1.00;99.90;;;;;;485483;245;27583;-73
2023/03/27 05:26:33;;;;;;;12.73;2.80;;;1.00;99.90;;;;;;485563;245;27508;-73
2023/03/27 05:28:35;;;;;;;8.93;2.95;;;1.00;99.90;;;;;;485539;245;27520;-73
2023/03/27 05:30:36;;;;;;;13.70;3.97;;;1.00;99.90;;;;;;485561;245;27453;-73
2023/03/27 05:32:38;;;;;;;5.72;2.60;;;1.00;99.90;;;;;;485509;245;27570;-73
2023/03/27 05:34:38;;;;;;;12.90;2.40;;;1.00;99.90;;;;;;485417;245;28032;-73
2023/03/27 05:36:39;;;;;;;8.48;2.78;;;0.90;99.90;;;;;;485554;245;27903;-73
2023/03/27 05:38:41;;;;;;;11.93;2.65;;;0.90;99.90;;;;;;485563;245;27973;-73
2023/03/27 05:40:42;;;;;;;12.10;3.17;;;0.90;99.90;;;;;;485549;245;27524;-73
2023/03/27 05:42:44;;;;;;;6.97;2.55;;;0.90;99.90;;;;;;485530;245;27525;-73
2023/03/27 05:44:44;;;;;;;7.45;2.67;;;0.90;99.90;;;;;;485512;245;27491;-73
2023/03/27 05:46:46;;;;;;;6.75;2.72;;;1.00;99.90;;;;;;485571;245;27551;-73
2023/03/27 05:48:47;;;;;;;9.13;2.50;;;1.10;99.90;;;;;;485554;245;27503;-73
2023/03/27 05:50:48;;;;;;;15.85;2.90;;;1.10;99.90;;;;;;485543;245;27555;-73
2023/03/27 05:52:49;;;;;;;7.72;2.80;;;1.10;99.90;;;;;;485530;245;27585;-73
2023/03/27 05:54:51;;;;;;;13.43;3.08;;;1.10;99.90;;;;;;485516;245;27510;-72
2023/03/27 05:56:52;;;;;;;4.22;2.60;;;1.20;99.90;;;;;;485366;244;27522;-73
2023/03/27 05:58:53;;;;;;;11.85;3.30;;;1.20;99.90;;;;;;485525;245;28080;-73
2023/03/27 06:00:54;;;;;;;9.13;2.50;;;1.20;99.90;;;;;;485534;245;28036;-73
2023/03/27 06:02:56;;;;;;;13.40;3.05;;;1.30;99.90;;;;;;485526;245;28004;-73
2023/03/27 06:04:57;;;;;;;10.20;2.80;;;1.30;99.90;;;;;;485486;245;27508;-72
2023/03/27 06:07:01;;;;;;;9.25;3.90;;;1.40;99.90;;;;;;485581;245;27580;-73
2023/03/27 06:09:00;;;;;;;6.47;2.58;;;1.40;99.90;;;;;;485365;245;27504;-73
2023/03/27 06:11:01;;;;;;;7.70;3.25;;;1.50;99.90;;;;;;485544;245;27467;-73
2023/03/27 06:13:02;;;;;;;8.77;2.37;;;1.40;99.90;;;;;;485534;245;27493;-73
2023/03/27 06:15:03;;;;;;;9.07;3.45;;;1.50;99.90;;;;;;485398;245;27508;-73
2023/03/27 06:17:05;;;;;;;7.25;2.55;;;1.50;99.90;;;;;;485556;245;27539;-73
2023/03/27 06:19:06;;;;;;;12.20;2.70;;;1.50;99.90;;;;;;485506;245;27498;-73
2023/03/27 06:21:07;;;;;;;12.20;3.10;;;1.40;99.90;;;;;;485425;245;27580;-73
2023/03/27 06:23:08;;;;;;;12.70;2.90;;;1.40;99.90;;;;;;485493;245;27979;-73
2023/03/27 06:25:10;;;;;;;11.55;3.12;;;1.40;99.90;;;;;;485457;245;28662;-73
2023/03/27 06:27:11;;;;;;;9.30;3.00;;;1.30;99.90;;;;;;485528;245;27990;-73
2023/03/27 06:29:12;;;;;;;13.68;3.03;;;1.30;99.90;;;;;;485536;245;27578;-73
2023/03/27 06:31:13;;;;;;;6.57;3.05;;;1.40;99.90;;;;;;485528;245;27603;-73
2023/03/27 06:33:15;;;;;;;8.85;3.42;;;1.30;99.90;;;;;;485538;245;27503;-73
2023/03/27 06:35:16;;;;;;;3.92;2.37;;;1.40;99.90;;;;;;485486;245;27453;-72
2023/03/27 06:37:18;;;;;;;8.25;3.10;;;1.40;99.90;;;;;;485541;245;27456;-73
2023/03/27 06:39:18;;;;;;;8.95;2.87;;;1.40;99.90;;;;;;485510;245;27577;-73
2023/03/27 06:41:20;;;;;;;8.88;2.45;;;1.40;99.90;;;;;;485534;245;27936;-73
2023/03/27 06:43:21;;;;;;;6.68;2.70;;;1.30;99.90;;;;;;485540;245;28111;-73
2023/03/27 06:45:22;;;;;;;9.25;2.50;;;1.30;99.90;;;;;;485497;245;28032;-73
2023/03/27 06:47:23;;;;;;;13.52;3.28;;;1.40;99.90;;;;;;485526;245;27624;-73
2023/03/27 06:49:25;;;;;;;14.13;3.85;;;1.50;99.90;;;;;;485525;245;27594;-74
2023/03/27 06:51:26;;;;;;;10.55;3.33;;;1.50;99.90;;;;;;485549;245;27471;-73
2023/03/27 06:53:28;;;;;;;8.80;2.97;;;1.50;99.90;;;;;;485573;245;27500;-73
2023/03/27 06:55:28;;;;;;;7.43;2.62;;;1.60;99.90;;;;;;485510;245;27479;-73
2023/03/27 06:57:30;;;;;;;13.18;3.10;;;1.60;99.90;;;;;;485565;245;27466;-73
2023/03/27 06:59:31;;;;;;;8.20;2.70;;;1.60;99.90;;;;;;485566;245;27508;-73
2023/03/27 07:01:32;;;;;;;6.15;2.67;;;1.70;99.90;;;;;;485542;245;27462;-73
2023/03/27 07:03:33;;;;;;;5.70;2.65;;;1.70;99.90;;;;;;485544;245;27943;-74
2023/03/27 07:05:38;;;;;;;8.32;2.70;;;1.80;99.90;;;;;;485489;245;27900;-73
2023/03/27 07:07:39;;;;;;;7.45;3.47;;;1.90;99.90;;;;;;485531;245;27494;-73
2023/03/27 07:09:40;;;;;;;9.27;2.50;;;2.00;99.90;;;;;;485555;245;27596;-73
2023/03/27 07:11:41;;;;;;;14.48;2.95;;;1.90;99.90;;;;;;485435;245;27518;-73
2023/03/27 07:13:43;;;;;;;8.50;2.62;;;1.90;99.90;;;;;;485514;241;27594;-73
2023/03/27 07:15:44;;;;;;;9.57;2.95;;;2.00;99.90;;;;;;485466;245;27619;-73
2023/03/27 07:17:45;;;;;;;5.57;2.75;;;2.00;99.90;;;;;;485472;245;27516;-73
2023/03/27 07:19:46;;;;;;;8.60;2.95;;;2.00;99.90;;;;;;485537;245;27907;-73
2023/03/27 07:21:48;;;;;;;6.53;2.70;;;2.00;99.90;;;;;;485519;245;28113;-73
2023/03/27 07:23:49;;;;;;;7.30;3.15;;;2.10;99.90;;;;;;485527;245;27920;-73
2023/03/27 07:25:51;;;;;;;5.90;2.55;;;2.10;99.90;;;;;;484956;245;28040;-73
2023/03/27 07:27:51;;;;;;;6.30;2.55;;;2.20;99.90;;;;;;485450;245;27601;-73
2023/03/27 07:29:53;;;;;;;6.53;2.78;;;2.30;99.90;;;;;;485528;245;27606;-73
2023/03/27 07:31:54;;;;;;;12.60;2.83;;;2.30;99.90;;;;;;485511;245;27522;-73
2023/03/27 07:33:56;;;;;;;10.25;2.97;;;2.30;99.90;;;;;;485509;245;27550;-73
2023/03/27 07:35:56;;;;;;;11.73;3.10;;;2.30;99.90;;;;;;485441;245;27515;-73
2023/03/27 07:37:58;;;;;;;8.98;2.50;;;2.50;99.90;;;;;;485522;245;27939;-73
2023/03/27 07:39:59;;;;;;;7.10;3.60;;;2.70;99.90;;;;;;485513;245;27481;-73
2023/03/27 07:42:00;;;;;;;5.93;2.78;;;2.80;99.90;;;;;;485501;245;27522;-73
2023/03/27 07:44:01;;;;;;;7.68;2.55;;;2.90;99.90;;;;;;485518;245;27469;-73
2023/03/27 07:46:04;;;;;;;7.70;3.17;;;2.90;99.90;;;;;;485447;245;27996;-73
2023/03/27 07:48:04;;;;;;;11.68;2.83;;;3.10;99.90;;;;;;485409;242;28163;-73
2023/03/27 07:50:08;;;;;;;15.35;3.08;;;3.10;99.90;;;;;;485493;245;29031;-73
2023/03/27 07:52:07;;;;;;;9.27;2.50;;;3.10;99.90;;;;;;485356;245;27502;-73
2023/03/27 07:54:12;;;;;;;8.70;2.75;;;3.10;99.90;;;;;;485452;245;27544;-73
2023/03/27 07:56:09;;;;;;;6.65;2.20;;;3.30;99.90;;;;;;485243;245;27492;-73
2023/03/27 07:58:10;;;;;;;6.00;2.40;;;3.40;99.90;;;;;;485531;245;27490;-73
2023/03/27 08:00:12;;;;;;;8.98;2.37;;;3.40;99.90;;;;;;485522;245;27477;-73
2023/03/27 08:02:13;;;;;;;12.80;3.05;;;3.50;99.90;;;;;;485379;245;27497;-73
2023/03/27 08:04:14;;;;;;;8.95;2.35;;;3.60;99.90;;;;;;485518;245;27488;-73
2023/03/27 08:06:15;;;;;;;6.95;2.45;;;3.70;99.90;;;;;;485514;245;27503;-73
2023/03/27 08:08:16;;;;;;;9.35;2.67;;;3.70;99.90;;;;;;485530;245;27499;-73
2023/03/27 08:10:18;;;;;;;7.72;2.78;;;3.80;99.90;;;;;;485520;245;27482;-73
2023/03/27 08:12:19;;;;;;;9.32;2.60;;;3.70;99.90;;;;;;485551;245;27491;-73
2023/03/27 08:14:20;;;;;;;7.03;2.70;;;3.60;99.90;;;;;;485499;245;27452;-73
2023/03/27 08:16:26;;;;;;;7.53;2.37;;;3.60;99.90;;;;;;485532;242;28263;-73
2023/03/27 08:18:23;;;;;;;7.60;2.47;;;3.70;99.90;;;;;;485314;245;27531;-74
2023/03/27 08:20:24;;;;;;;4.80;2.00;;;3.70;99.90;;;;;;485524;241;27566;-74
2023/03/27 08:22:25;;;;;;;10.20;2.53;;;3.80;99.90;;;;;;485519;245;27534;-73
2023/03/27 08:24:26;;;;;;;11.12;2.97;;;3.70;99.90;;;;;;485460;245;27919;-73
2023/03/27 08:26:28;;;;;;;8.77;2.35;;;3.90;99.90;;;;;;485544;245;27499;-74
2023/03/27 08:28:29;;;;;;;11.38;3.17;;;4.00;99.90;;;;;;485523;245;27459;-73
2023/03/27 08:30:30;;;;;;;11.52;2.80;;;4.40;99.90;;;;;;485518;245;27495;-73
2023/03/27 08:32:32;;;;;;;4.15;2.25;;;4.30;99.90;;;;;;485541;245;27609;-73
2023/03/27 08:34:33;;;;;;;6.12;2.50;;;4.50;99.90;;;;;;485502;245;27500;-73
2023/03/27 08:36:34;;;;;;;9.63;2.80;;;4.70;99.90;;;;;;485521;245;27983;-76
2023/03/27 08:38:38;;;;;;;11.30;2.67;;;4.60;99.90;;;;;;485530;245;27940;-73
2023/03/27 08:40:37;;;;;;;7.03;2.95;;;4.40;99.90;;;;;;485415;245;27945;-73
2023/03/27 08:42:38;;;;;;;8.68;2.40;;;4.10;99.90;;;;;;485530;245;27517;-73
2023/03/27 08:44:39;;;;;;;5.97;2.25;;;3.90;99.90;;;;;;485488;245;27499;-73
2023/03/27 08:46:40;;;;;;;4.60;2.40;;;3.60;99.90;;;;;;485309;245;27507;-73
2023/03/27 08:48:42;;;;;;;9.45;2.22;;;3.50;99.90;;;;;;485546;245;27460;-73
2023/03/27 08:50:43;;;;;;;4.72;2.00;;;3.50;99.90;;;;;;485519;241;27833;-73
2023/03/27 08:52:44;;;;;;;10.63;2.35;;;3.50;99.90;;;;;;485534;245;27590;-73
2023/03/27 08:54:46;;;;;;;13.13;2.80;;;3.70;99.90;;;;;;485472;245;27931;-73
2023/03/27 08:56:47;;;;;;;6.05;2.60;;;4.10;99.90;;;;;;485525;245;28070;-75
2023/03/27 08:58:48;;;;;;;7.18;2.30;;;4.40;99.90;;;;;;485544;245;28109;-75
2023/03/27 09:00:50;;;;;;;3.42;2.20;;;4.60;99.90;;;;;;485541;245;27478;-73
2023/03/27 09:02:50;;;;;;;4.30;1.90;;;4.70;99.90;;;;;;485521;245;27590;-73
2023/03/27 09:04:52;;;;;;;5.70;2.25;;;4.80;99.90;;;;;;485496;245;27471;-74
2023/03/27 09:06:53;;;;;;;8.70;2.35;;;4.80;99.90;;;;;;485567;245;27543;-74
2023/03/27 09:08:54;;;;;;;8.32;2.70;;;4.70;99.90;;;;;;485559;242;27888;-74
2023/03/27 09:10:55;;;;;;;6.28;2.00;;;4.40;99.90;;;;;;485548;245;27475;-73
2023/03/27 09:12:57;;;;;;;12.75;2.20;;;4.00;99.90;;;;;;485537;245;27984;-74
2023/03/27 09:14:58;;;;;;;8.10;2.15;;;3.80;99.90;;;;;;485472;245;27935;-72
2023/03/27 09:16:59;;;;;;;16.65;3.17;;;3.60;99.90;;;;;;485543;245;27495;-73
2023/03/27 09:19:00;;;;;;;5.15;2.17;;;3.60;99.90;;;;;;485552;245;27508;-73
2023/03/27 09:21:02;;;;;;;10.68;2.40;;;3.80;99.90;;;;;;485571;245;27463;-73
2023/03/27 09:23:04;;;;;;;8.00;2.20;;;3.90;99.90;;;;;;485500;241;27518;-75
2023/03/27 09:25:07;;;;;;;6.65;1.98;;;4.10;99.90;;;;;;485460;245;27479;-76
2023/03/27 09:27:08;;;;;;;4.65;2.17;;;;;;;;;;485415;245;27564;-74
2023/03/27 09:29:10;;;;;;;4.75;1.90;;;4.50;99.90;;;;;;485545;244;27025;-73
2023/03/27 09:31:10;;;;;;;6.60;2.25;;;4.50;99.90;;;;;;485531;245;27920;-73
2023/03/27 09:33:11;;;;;;;6.00;1.90;;;4.70;99.90;;;;;;485543;245;27591;-73
2023/03/27 09:35:13;;;;;;;2.87;2.00;;;4.80;99.90;;;;;;485519;245;27510;-73
2023/03/27 09:37:15;;;;;;;3.85;1.90;;;4.90;99.90;;;;;;485552;245;27523;-74
2023/03/27 09:39:15;;;;;;;7.62;2.47;;;5.00;99.90;;;;;;485520;245;27507;-73
2023/03/27 09:41:17;;;;;;;8.65;2.15;;;5.30;99.90;;;;;;485553;245;27477;-74
2023/03/27 09:43:18;;;;;;;4.57;1.80;;;5.40;99.90;;;;;;485319;245;27482;-76
2023/03/27 09:45:19;;;;;;;3.30;1.60;;;5.20;99.90;;;;;;485437;245;27982;-73
2023/03/27 09:47:21;;;;;;;4.93;2.03;;;4.90;99.90;;;;;;485529;245;28108;-74
2023/03/27 09:49:21;;;;;;;5.20;1.90;;;4.60;99.90;;;;;;485540;245;27507;-74
2023/03/27 09:51:23;;;;;;;4.00;1.95;;;4.50;99.90;;;;;;485545;245;27468;-73
2023/03/27 09:53:26;;;;;;;9.60;2.25;;;4.50;99.90;;;;;;485531;245;27509;-76
2023/03/27 09:55:25;;;;;;;5.80;2.10;;;4.70;99.90;;;;;;485361;245;27507;-73
2023/03/27 09:57:26;;;;;;;6.55;1.95;;;5.00;99.90;;;;;;485524;245;27462;-74
2023/03/27 09:59:28;;;;;;;3.78;2.25;;;5.10;99.90;;;;;;485528;245;27575;-74
2023/03/27 10:01:29;;;;;;;6.25;2.05;;;5.30;99.90;;;;;;485525;241;28838;-73
2023/03/27 10:03:30;;;;;;;5.05;2.22;;;5.30;99.90;;;;;;485550;245;27914;-76
2023/03/27 10:05:31;;;;;;;7.32;2.53;;;5.70;99.90;;;;;;485537;245;27512;-74
2023/03/27 10:07:33;;;;;;;6.85;2.58;;;5.90;99.90;;;;;;485590;245;27458;-73
2023/03/27 10:09:34;;;;;;;3.92;2.03;;;6.20;99.90;;;;;;485569;241;27507;-73
2023/03/27 10:11:35;;;;;;;5.15;2.30;;;6.30;99.90;;;;;;485572;245;27869;-74
2023/03/27 10:13:37;;;;;;;5.00;2.90;;;6.30;99.90;;;;;;485581;245;27476;-73
2023/03/27 10:15:38;;;;;;;3.30;2.20;;;6.40;99.90;;;;;;485482;245;27744;-76
2023/03/27 10:17:39;;;;;;;5.33;2.07;;;6.50;99.90;;;;;;485575;245;27935;-76
2023/03/27 10:19:41;;;;;;;2.70;1.80;;;6.50;99.90;;;;;;485568;245;28453;-76
2023/03/27 10:21:41;;;;;;;5.13;2.00;;;6.30;99.90;;;;;;485548;245;28648;-76
2023/03/27 10:23:43;;;;;;;4.40;2.13;;;6.00;99.90;;;;;;485562;245;28437;-76
2023/03/27 10:25:44;;;;;;;5.37;2.45;;;5.90;99.90;;;;;;485538;245;28113;-77
2023/03/27 10:27:46;;;;;;;7.10;1.77;;;5.80;99.90;;;;;;485600;245;27453;-72
2023/03/27 10:29:46;;;;;;;5.73;2.40;;;5.90;99.90;;;;;;485533;245;29297;-73
2023/03/27 10:31:48;;;;;;;8.38;2.22;;;6.00;99.90;;;;;;485389;245;28834;-76
2023/03/27 10:33:49;;;;;;;6.00;2.33;;;6.00;99.90;;;;;;485569;245;27859;-76
2023/03/27 10:35:51;;;;;;;5.63;2.70;;;6.10;99.90;;;;;;485517;245;28033;-76